sensor_id;sensor_type;location;lat;lon;timestamp;pressure;altitude;pressure_sealevel;temperature;humidity
59545;BME280;45368;55.002;-1.592;2023-02-11T00:00:17;102202.20;;;8.01;60.91
59545;BME280;45368;55.002;-1.592;2023-02-11T00:02:44;102204.12;;;7.87;62.13
59545;BME280;45368;55.002;-1.592;2023-02-11T00:05:11;102215.26;;;8.11;61.54
59545;BME280;45368;55.002;-1.592;2023-02-11T00:07:38;102215.21;;;8.30;60.75
59545;BME280;45368;55.002;-1.592;2023-02-11T00:10:05;102212.04;;;8.70;59.95
59545;BME280;45368;55.002;-1.592;2023-02-11T00:12:33;102209.10;;;8.07;61.55
59545;BME280;45368;55.002;-1.592;2023-02-11T00:15:00;102204.38;;;8.16;60.86
59545;BME280;45368;55.002;-1.592;2023-02-11T00:17:28;102206.94;;;8.50;60.58
59545;BME280;45368;55.002;-1.592;2023-02-11T00:19:55;102202.36;;;8.07;61.58
59545;BME280;45368;55.002;-1.592;2023-02-11T00:22:22;102203.68;;;7.88;62.36
59545;BME280;45368;55.002;-1.592;2023-02-11T00:24:50;102197.72;;;7.78;61.90
59545;BME280;45368;55.002;-1.592;2023-02-11T00:27:17;102195.89;;;7.70;63.84
59545;BME280;45368;55.002;-1.592;2023-02-11T00:29:45;102185.03;;;7.89;61.98
59545;BME280;45368;55.002;-1.592;2023-02-11T00:32:12;102201.67;;;7.54;63.94
59545;BME280;45368;55.002;-1.592;2023-02-11T00:34:39;102191.94;;;7.79;62.73
59545;BME280;45368;55.002;-1.592;2023-02-11T00:37:07;102183.65;;;8.08;61.48
59545;BME280;45368;55.002;-1.592;2023-02-11T00:39:34;102190.40;;;8.33;60.54
59545;BME280;45368;55.002;-1.592;2023-02-11T00:42:03;102190.96;;;8.10;62.19
59545;BME280;45368;55.002;-1.592;2023-02-11T00:44:30;102194.95;;;8.36;61.56
59545;BME280;45368;55.002;-1.592;2023-02-11T00:46:58;102200.95;;;8.24;61.67
59545;BME280;45368;55.002;-1.592;2023-02-11T00:49:25;102208.26;;;7.76;62.81
59545;BME280;45368;55.002;-1.592;2023-02-11T00:51:52;102217.05;;;7.49;63.60
59545;BME280;45368;55.002;-1.592;2023-02-11T00:54:20;102225.80;;;7.94;62.64
59545;BME280;45368;55.002;-1.592;2023-02-11T00:56:47;102222.45;;;8.04;61.95
59545;BME280;45368;55.002;-1.592;2023-02-11T00:59:14;102233.67;;;7.94;62.60
59545;BME280;45368;55.002;-1.592;2023-02-11T01:01:40;102232.99;;;7.33;62.99
59545;BME280;45368;55.002;-1.592;2023-02-11T01:04:07;102224.74;;;8.40;60.79
59545;BME280;45368;55.002;-1.592;2023-02-11T01:06:35;102224.36;;;8.03;62.49
59545;BME280;45368;55.002;-1.592;2023-02-11T01:09:02;102223.06;;;7.77;63.37
59545;BME280;45368;55.002;-1.592;2023-02-11T01:11:30;102218.68;;;8.62;60.73
59545;BME280;45368;55.002;-1.592;2023-02-11T01:13:56;102213.29;;;8.32;61.44
59545;BME280;45368;55.002;-1.592;2023-02-11T01:16:24;102217.00;;;8.19;62.54
59545;BME280;45368;55.002;-1.592;2023-02-11T01:18:52;102220.16;;;7.24;65.39
59545;BME280;45368;55.002;-1.592;2023-02-11T01:21:20;102216.85;;;7.77;64.61
59545;BME280;45368;55.002;-1.592;2023-02-11T01:23:47;102211.27;;;7.82;63.39
59545;BME280;45368;55.002;-1.592;2023-02-11T01:26:14;102197.11;;;7.88;63.56
59545;BME280;45368;55.002;-1.592;2023-02-11T01:28:42;102201.11;;;7.37;64.44
59545;BME280;45368;55.002;-1.592;2023-02-11T01:31:09;102191.90;;;7.22;65.13
59545;BME280;45368;55.002;-1.592;2023-02-11T01:33:37;102181.62;;;7.72;63.76
59545;BME280;45368;55.002;-1.592;2023-02-11T01:36:05;102192.73;;;7.28;65.20
59545;BME280;45368;55.002;-1.592;2023-02-11T01:38:34;102196.43;;;7.24;65.44
59545;BME280;45368;55.002;-1.592;2023-02-11T01:41:04;102188.14;;;7.53;64.28
59545;BME280;45368;55.002;-1.592;2023-02-11T01:43:34;102183.71;;;7.91;62.37
59545;BME280;45368;55.002;-1.592;2023-02-11T01:46:20;102178.93;;;8.03;61.35
59545;BME280;45368;55.002;-1.592;2023-02-11T01:48:58;102192.20;;;8.08;60.93
59545;BME280;45368;55.002;-1.592;2023-02-11T01:51:31;102183.86;;;8.55;60.03
59545;BME280;45368;55.002;-1.592;2023-02-11T01:54:01;102180.64;;;7.81;61.19
59545;BME280;45368;55.002;-1.592;2023-02-11T01:56:30;102178.72;;;7.67;62.69
59545;BME280;45368;55.002;-1.592;2023-02-11T01:59:02;102175.22;;;8.33;61.19
59545;BME280;45368;55.002;-1.592;2023-02-11T02:01:32;102172.17;;;8.23;62.63
59545;BME280;45368;55.002;-1.592;2023-02-11T02:04:02;102173.89;;;7.81;63.07
59545;BME280;45368;55.002;-1.592;2023-02-11T02:06:34;102161.81;;;7.61;64.07
59545;BME280;45368;55.002;-1.592;2023-02-11T02:09:07;102162.79;;;7.50;64.20
59545;BME280;45368;55.002;-1.592;2023-02-11T02:11:36;102161.16;;;7.43;64.80
59545;BME280;45368;55.002;-1.592;2023-02-11T02:14:03;102159.22;;;7.04;66.40
59545;BME280;45368;55.002;-1.592;2023-02-11T02:16:33;102158.45;;;6.80;66.63
59545;BME280;45368;55.002;-1.592;2023-02-11T02:19:21;102162.88;;;7.01;67.36
59545;BME280;45368;55.002;-1.592;2023-02-11T02:23:09;102164.10;;;6.89;68.12
59545;BME280;45368;55.002;-1.592;2023-02-11T02:26:13;102176.62;;;7.12;65.06
59545;BME280;45368;55.002;-1.592;2023-02-11T02:31:35;102185.69;;;8.69;62.43
59545;BME280;45368;55.002;-1.592;2023-02-11T02:34:10;102200.59;;;7.43;62.34
59545;BME280;45368;55.002;-1.592;2023-02-11T02:36:47;102202.49;;;7.15;62.95
59545;BME280;45368;55.002;-1.592;2023-02-11T02:39:22;102212.00;;;7.81;62.45
59545;BME280;45368;55.002;-1.592;2023-02-11T02:41:51;102205.42;;;8.38;61.12
59545;BME280;45368;55.002;-1.592;2023-02-11T02:44:19;102205.52;;;8.15;60.50
59545;BME280;45368;55.002;-1.592;2023-02-11T02:46:47;102207.42;;;8.98;58.60
59545;BME280;45368;55.002;-1.592;2023-02-11T02:49:15;102210.55;;;8.38;59.65
59545;BME280;45368;55.002;-1.592;2023-02-11T02:51:59;102204.43;;;8.80;59.41
59545;BME280;45368;55.002;-1.592;2023-02-11T02:55:47;102204.88;;;9.04;58.30
59545;BME280;45368;55.002;-1.592;2023-02-11T02:58:35;102209.50;;;8.92;58.83
59545;BME280;45368;55.002;-1.592;2023-02-11T03:01:11;102215.14;;;8.35;59.48
59545;BME280;45368;55.002;-1.592;2023-02-11T03:03:51;102212.36;;;8.00;60.41
59545;BME280;45368;55.002;-1.592;2023-02-11T03:06:24;102205.99;;;8.41;59.70
59545;BME280;45368;55.002;-1.592;2023-02-11T03:08:58;102206.26;;;8.21;59.94
59545;BME280;45368;55.002;-1.592;2023-02-11T03:11:28;102204.26;;;8.42;59.81
59545;BME280;45368;55.002;-1.592;2023-02-11T03:13:56;102200.68;;;8.07;60.06
59545;BME280;45368;55.002;-1.592;2023-02-11T03:16:27;102204.68;;;7.89;60.79
59545;BME280;45368;55.002;-1.592;2023-02-11T03:18:58;102206.25;;;8.37;59.92
59545;BME280;45368;55.002;-1.592;2023-02-11T03:21:30;102212.79;;;8.47;59.38
59545;BME280;45368;55.002;-1.592;2023-02-11T03:24:05;102213.85;;;8.57;59.51
59545;BME280;45368;55.002;-1.592;2023-02-11T03:26:37;102218.26;;;8.58;58.76
59545;BME280;45368;55.002;-1.592;2023-02-11T03:29:11;102222.16;;;8.99;57.91
59545;BME280;45368;55.002;-1.592;2023-02-11T03:31:46;102224.32;;;9.20;57.42
59545;BME280;45368;55.002;-1.592;2023-02-11T03:34:23;102231.60;;;8.93;57.76
59545;BME280;45368;55.002;-1.592;2023-02-11T03:36:58;102239.15;;;9.01;58.63
59545;BME280;45368;55.002;-1.592;2023-02-11T03:39:30;102237.47;;;8.41;59.42
59545;BME280;45368;55.002;-1.592;2023-02-11T03:42:00;102249.68;;;8.11;60.37
59545;BME280;45368;55.002;-1.592;2023-02-11T03:44:31;102254.00;;;8.65;59.53
59545;BME280;45368;55.002;-1.592;2023-02-11T03:47:02;102257.25;;;8.61;59.71
59545;BME280;45368;55.002;-1.592;2023-02-11T03:49:32;102258.05;;;8.74;59.32
59545;BME280;45368;55.002;-1.592;2023-02-11T03:52:02;102257.71;;;9.33;58.02
59545;BME280;45368;55.002;-1.592;2023-02-11T03:54:31;102255.64;;;9.04;57.54
59545;BME280;45368;55.002;-1.592;2023-02-11T03:57:02;102265.74;;;9.24;57.86
59545;BME280;45368;55.002;-1.592;2023-02-11T03:59:29;102264.30;;;9.25;57.31
59545;BME280;45368;55.002;-1.592;2023-02-11T04:01:57;102265.20;;;9.55;56.00
59545;BME280;45368;55.002;-1.592;2023-02-11T04:04:25;102267.84;;;10.03;55.54
59545;BME280;45368;55.002;-1.592;2023-02-11T04:06:52;102269.08;;;9.78;54.93
59545;BME280;45368;55.002;-1.592;2023-02-11T04:09:20;102264.78;;;10.38;53.95
59545;BME280;45368;55.002;-1.592;2023-02-11T04:11:48;102266.83;;;10.94;52.45
59545;BME280;45368;55.002;-1.592;2023-02-11T04:14:16;102265.79;;;11.59;51.44
59545;BME280;45368;55.002;-1.592;2023-02-11T04:16:43;102274.05;;;10.81;52.05
59545;BME280;45368;55.002;-1.592;2023-02-11T04:19:11;102278.64;;;10.01;54.17
59545;BME280;45368;55.002;-1.592;2023-02-11T04:21:39;102278.49;;;9.17;56.77
59545;BME280;45368;55.002;-1.592;2023-02-11T04:24:06;102278.26;;;9.75;54.68
59545;BME280;45368;55.002;-1.592;2023-02-11T04:26:33;102280.20;;;10.08;54.13
59545;BME280;45368;55.002;-1.592;2023-02-11T04:29:00;102280.58;;;9.87;55.31
59545;BME280;45368;55.002;-1.592;2023-02-11T04:31:28;102278.89;;;9.32;57.07
59545;BME280;45368;55.002;-1.592;2023-02-11T04:33:56;102280.35;;;9.17;57.80
59545;BME280;45368;55.002;-1.592;2023-02-11T04:36:23;102279.49;;;9.04;57.29
59545;BME280;45368;55.002;-1.592;2023-02-11T04:38:50;102281.63;;;8.50;59.48
59545;BME280;45368;55.002;-1.592;2023-02-11T04:41:17;102293.41;;;8.86;58.89
59545;BME280;45368;55.002;-1.592;2023-02-11T04:43:44;102298.28;;;9.07;58.31
59545;BME280;45368;55.002;-1.592;2023-02-11T04:46:12;102298.09;;;8.83;59.03
59545;BME280;45368;55.002;-1.592;2023-02-11T04:48:39;102284.89;;;8.78;58.92
59545;BME280;45368;55.002;-1.592;2023-02-11T04:51:07;102292.72;;;8.93;58.53
59545;BME280;45368;55.002;-1.592;2023-02-11T04:53:34;102298.72;;;8.58;60.25
59545;BME280;45368;55.002;-1.592;2023-02-11T04:56:01;102303.18;;;8.42;59.53
59545;BME280;45368;55.002;-1.592;2023-02-11T04:58:28;102298.09;;;8.62;58.70
59545;BME280;45368;55.002;-1.592;2023-02-11T05:00:59;102300.55;;;8.21;60.26
59545;BME280;45368;55.002;-1.592;2023-02-11T05:03:30;102301.88;;;8.48;60.01
59545;BME280;45368;55.002;-1.592;2023-02-11T05:05:57;102305.49;;;7.74;62.32
59545;BME280;45368;55.002;-1.592;2023-02-11T05:08:25;102303.48;;;7.71;62.01
59545;BME280;45368;55.002;-1.592;2023-02-11T05:10:52;102298.23;;;8.39;61.68
59545;BME280;45368;55.002;-1.592;2023-02-11T05:13:19;102296.87;;;8.00;63.24
59545;BME280;45368;55.002;-1.592;2023-02-11T05:15:47;102295.90;;;7.63;63.31
59545;BME280;45368;55.002;-1.592;2023-02-11T05:18:15;102288.51;;;7.72;63.30
59545;BME280;45368;55.002;-1.592;2023-02-11T05:20:42;102281.03;;;7.33;65.81
59545;BME280;45368;55.002;-1.592;2023-02-11T05:23:10;102274.08;;;6.83;66.23
59545;BME280;45368;55.002;-1.592;2023-02-11T05:25:37;102270.64;;;7.15;67.07
59545;BME280;45368;55.002;-1.592;2023-02-11T05:28:06;102272.02;;;7.12;66.73
59545;BME280;45368;55.002;-1.592;2023-02-11T05:30:33;102277.57;;;7.02;68.41
59545;BME280;45368;55.002;-1.592;2023-02-11T05:33:01;102282.18;;;6.58;67.99
59545;BME280;45368;55.002;-1.592;2023-02-11T05:35:29;102288.57;;;6.66;67.77
59545;BME280;45368;55.002;-1.592;2023-02-11T05:37:56;102293.40;;;7.21;66.52
59545;BME280;45368;55.002;-1.592;2023-02-11T05:40:23;102291.96;;;7.71;65.47
59545;BME280;45368;55.002;-1.592;2023-02-11T05:42:51;102293.93;;;7.52;64.72
59545;BME280;45368;55.002;-1.592;2023-02-11T05:45:19;102292.19;;;7.59;64.07
59545;BME280;45368;55.002;-1.592;2023-02-11T05:47:46;102296.46;;;7.51;64.45
59545;BME280;45368;55.002;-1.592;2023-02-11T05:50:13;102289.62;;;8.45;61.66
59545;BME280;45368;55.002;-1.592;2023-02-11T05:52:41;102291.40;;;8.55;61.23
59545;BME280;45368;55.002;-1.592;2023-02-11T05:55:09;102295.41;;;8.13;61.69
59545;BME280;45368;55.002;-1.592;2023-02-11T05:57:36;102294.92;;;8.82;60.00
59545;BME280;45368;55.002;-1.592;2023-02-11T06:00:05;102296.98;;;8.90;60.15
59545;BME280;45368;55.002;-1.592;2023-02-11T06:02:33;102300.94;;;9.12;59.61
59545;BME280;45368;55.002;-1.592;2023-02-11T06:05:01;102307.14;;;8.52;61.18
59545;BME280;45368;55.002;-1.592;2023-02-11T06:07:28;102309.59;;;9.09;59.07
59545;BME280;45368;55.002;-1.592;2023-02-11T06:09:55;102308.43;;;8.76;60.52
59545;BME280;45368;55.002;-1.592;2023-02-11T06:12:23;102312.77;;;9.28;58.56
59545;BME280;45368;55.002;-1.592;2023-02-11T06:14:50;102322.54;;;8.96;59.77
59545;BME280;45368;55.002;-1.592;2023-02-11T06:17:17;102325.87;;;8.94;59.29
59545;BME280;45368;55.002;-1.592;2023-02-11T06:20:11;102335.91;;;9.53;57.84
59545;BME280;45368;55.002;-1.592;2023-02-11T06:22:38;102336.17;;;10.09;55.95
59545;BME280;45368;55.002;-1.592;2023-02-11T06:25:06;102339.70;;;9.47;56.25
59545;BME280;45368;55.002;-1.592;2023-02-11T06:27:33;102342.22;;;10.49;55.39
59545;BME280;45368;55.002;-1.592;2023-02-11T06:30:00;102340.84;;;9.86;55.78
59545;BME280;45368;55.002;-1.592;2023-02-11T06:32:28;102337.44;;;10.16;56.73
59545;BME280;45368;55.002;-1.592;2023-02-11T06:34:56;102333.87;;;9.38;58.34
59545;BME280;45368;55.002;-1.592;2023-02-11T06:37:23;102336.51;;;8.62;60.94
59545;BME280;45368;55.002;-1.592;2023-02-11T06:39:50;102339.82;;;8.34;61.87
59545;BME280;45368;55.002;-1.592;2023-02-11T06:42:17;102340.08;;;8.47;62.00
59545;BME280;45368;55.002;-1.592;2023-02-11T06:44:44;102346.62;;;7.86;63.37
59545;BME280;45368;55.002;-1.592;2023-02-11T06:47:12;102351.14;;;7.27;63.21
59545;BME280;45368;55.002;-1.592;2023-02-11T06:49:39;102344.74;;;8.03;62.68
59545;BME280;45368;55.002;-1.592;2023-02-11T06:52:06;102354.03;;;8.05;61.55
59545;BME280;45368;55.002;-1.592;2023-02-11T06:54:33;102352.40;;;8.16;61.62
59545;BME280;45368;55.002;-1.592;2023-02-11T06:57:00;102347.26;;;8.26;60.96
59545;BME280;45368;55.002;-1.592;2023-02-11T06:59:28;102355.02;;;7.73;62.28
59545;BME280;45368;55.002;-1.592;2023-02-11T07:01:55;102356.62;;;7.91;62.84
59545;BME280;45368;55.002;-1.592;2023-02-11T07:04:22;102358.93;;;8.00;61.50
59545;BME280;45368;55.002;-1.592;2023-02-11T07:06:48;102357.65;;;7.97;61.53
59545;BME280;45368;55.002;-1.592;2023-02-11T07:09:15;102363.79;;;8.53;60.60
59545;BME280;45368;55.002;-1.592;2023-02-11T07:11:47;102370.73;;;8.62;60.28
59545;BME280;45368;55.002;-1.592;2023-02-11T07:14:15;102375.71;;;8.58;59.54
59545;BME280;45368;55.002;-1.592;2023-02-11T07:16:43;102381.17;;;9.05;59.09
59545;BME280;45368;55.002;-1.592;2023-02-11T07:19:11;102388.39;;;9.26;58.86
59545;BME280;45368;55.002;-1.592;2023-02-11T07:21:38;102393.66;;;8.31;61.72
59545;BME280;45368;55.002;-1.592;2023-02-11T07:24:07;102398.49;;;8.33;62.31
59545;BME280;45368;55.002;-1.592;2023-02-11T07:26:35;102399.64;;;8.11;63.07
59545;BME280;45368;55.002;-1.592;2023-02-11T07:29:02;102405.07;;;8.53;61.24
59545;BME280;45368;55.002;-1.592;2023-02-11T07:31:30;102405.50;;;8.34;61.32
59545;BME280;45368;55.002;-1.592;2023-02-11T07:33:59;102413.75;;;9.11;59.91
59545;BME280;45368;55.002;-1.592;2023-02-11T07:36:27;102418.68;;;8.74;60.66
59545;BME280;45368;55.002;-1.592;2023-02-11T07:38:56;102424.84;;;8.77;60.41
59545;BME280;45368;55.002;-1.592;2023-02-11T07:41:24;102429.75;;;8.52;60.12
59545;BME280;45368;55.002;-1.592;2023-02-11T07:43:52;102430.73;;;9.07;59.27
59545;BME280;45368;55.002;-1.592;2023-02-11T07:46:22;102437.81;;;8.96;59.40
59545;BME280;45368;55.002;-1.592;2023-02-11T07:48:50;102429.20;;;9.72;58.10
59545;BME280;45368;55.002;-1.592;2023-02-11T07:51:19;102433.44;;;9.32;59.11
59545;BME280;45368;55.002;-1.592;2023-02-11T07:53:47;102429.85;;;9.67;57.89
59545;BME280;45368;55.002;-1.592;2023-02-11T07:56:15;102433.91;;;9.73;58.06
59545;BME280;45368;55.002;-1.592;2023-02-11T07:58:43;102438.03;;;9.43;57.19
59545;BME280;45368;55.002;-1.592;2023-02-11T08:01:13;102450.40;;;9.02;59.10
59545;BME280;45368;55.002;-1.592;2023-02-11T08:03:41;102446.70;;;9.55;57.64
59545;BME280;45368;55.002;-1.592;2023-02-11T08:06:10;102451.73;;;9.05;58.67
59545;BME280;45368;55.002;-1.592;2023-02-11T08:08:38;102450.33;;;9.34;57.17
59545;BME280;45368;55.002;-1.592;2023-02-11T08:11:07;102452.55;;;9.71;57.09
59545;BME280;45368;55.002;-1.592;2023-02-11T08:13:35;102452.88;;;9.59;58.56
59545;BME280;45368;55.002;-1.592;2023-02-11T08:16:03;102454.65;;;8.91;58.66
59545;BME280;45368;55.002;-1.592;2023-02-11T08:18:32;102457.08;;;8.76;59.47
59545;BME280;45368;55.002;-1.592;2023-02-11T08:21:03;102456.51;;;9.01;58.87
59545;BME280;45368;55.002;-1.592;2023-02-11T08:23:30;102461.70;;;9.22;58.78
59545;BME280;45368;55.002;-1.592;2023-02-11T08:26:00;102467.94;;;8.46;60.86
59545;BME280;45368;55.002;-1.592;2023-02-11T08:28:28;102473.39;;;8.51;60.46
59545;BME280;45368;55.002;-1.592;2023-02-11T08:30:55;102477.57;;;8.81;60.05
59545;BME280;45368;55.002;-1.592;2023-02-11T08:33:23;102471.14;;;9.02;60.20
59545;BME280;45368;55.002;-1.592;2023-02-11T08:35:50;102467.53;;;8.66;60.29
59545;BME280;45368;55.002;-1.592;2023-02-11T08:38:17;102464.41;;;8.56;61.62
59545;BME280;45368;55.002;-1.592;2023-02-11T08:40:44;102468.42;;;8.39;62.71
59545;BME280;45368;55.002;-1.592;2023-02-11T08:43:11;102473.29;;;8.37;63.00
59545;BME280;45368;55.002;-1.592;2023-02-11T08:45:39;102477.61;;;8.39;63.60
59545;BME280;45368;55.002;-1.592;2023-02-11T08:48:06;102477.22;;;7.97;65.32
59545;BME280;45368;55.002;-1.592;2023-02-11T08:50:34;102475.04;;;7.84;64.66
59545;BME280;45368;55.002;-1.592;2023-02-11T08:53:01;102478.23;;;7.99;64.19
59545;BME280;45368;55.002;-1.592;2023-02-11T08:55:27;102475.01;;;8.17;62.62
59545;BME280;45368;55.002;-1.592;2023-02-11T08:58:00;102477.69;;;8.43;61.69
59545;BME280;45368;55.002;-1.592;2023-02-11T09:00:27;102483.30;;;8.78;61.62
59545;BME280;45368;55.002;-1.592;2023-02-11T09:02:55;102487.30;;;8.91;60.53
59545;BME280;45368;55.002;-1.592;2023-02-11T09:05:22;102490.04;;;8.21;62.22
59545;BME280;45368;55.002;-1.592;2023-02-11T09:07:50;102494.59;;;8.85;61.72
59545;BME280;45368;55.002;-1.592;2023-02-11T09:10:17;102492.19;;;9.09;60.43
59545;BME280;45368;55.002;-1.592;2023-02-11T09:12:45;102491.59;;;8.47;61.72
59545;BME280;45368;55.002;-1.592;2023-02-11T09:15:13;102495.58;;;8.96;60.43
59545;BME280;45368;55.002;-1.592;2023-02-11T09:17:40;102500.00;;;8.56;61.35
59545;BME280;45368;55.002;-1.592;2023-02-11T09:20:08;102503.82;;;9.26;60.10
59545;BME280;45368;55.002;-1.592;2023-02-11T09:22:36;102504.51;;;9.23;60.03
59545;BME280;45368;55.002;-1.592;2023-02-11T09:25:04;102506.25;;;9.72;58.97
59545;BME280;45368;55.002;-1.592;2023-02-11T09:27:31;102511.80;;;9.91;57.81
59545;BME280;45368;55.002;-1.592;2023-02-11T09:29:59;102517.53;;;9.99;56.98
59545;BME280;45368;55.002;-1.592;2023-02-11T09:32:26;102520.65;;;10.13;57.48
59545;BME280;45368;55.002;-1.592;2023-02-11T09:34:54;102526.22;;;9.85;58.36
59545;BME280;45368;55.002;-1.592;2023-02-11T09:37:20;102529.56;;;9.50;59.50
59545;BME280;45368;55.002;-1.592;2023-02-11T09:39:47;102534.03;;;9.54;58.90
59545;BME280;45368;55.002;-1.592;2023-02-11T09:42:29;102542.30;;;9.20;60.28
59545;BME280;45368;55.002;-1.592;2023-02-11T09:45:04;102546.62;;;8.99;61.33
59545;BME280;45368;55.002;-1.592;2023-02-11T09:47:45;102548.34;;;9.48;60.12
59545;BME280;45368;55.002;-1.592;2023-02-11T09:50:15;102545.02;;;9.09;60.57
59545;BME280;45368;55.002;-1.592;2023-02-11T09:52:48;102540.21;;;10.10;58.45
59545;BME280;45368;55.002;-1.592;2023-02-11T09:55:20;102537.33;;;10.18;57.97
59545;BME280;45368;55.002;-1.592;2023-02-11T09:57:48;102532.86;;;9.88;59.44
59545;BME280;45368;55.002;-1.592;2023-02-11T10:00:21;102522.55;;;9.75;59.29
59545;BME280;45368;55.002;-1.592;2023-02-11T10:03:10;102517.53;;;9.50;59.51
59545;BME280;45368;55.002;-1.592;2023-02-11T10:05:58;102511.28;;;9.88;60.40
59545;BME280;45368;55.002;-1.592;2023-02-11T10:08:36;102500.70;;;10.22;58.44
59545;BME280;45368;55.002;-1.592;2023-02-11T10:11:11;102500.11;;;10.05;58.42
59545;BME280;45368;55.002;-1.592;2023-02-11T10:13:48;102504.24;;;9.66;60.24
59545;BME280;45368;55.002;-1.592;2023-02-11T10:16:32;102507.51;;;9.92;58.91
59545;BME280;45368;55.002;-1.592;2023-02-11T10:19:17;102505.61;;;9.65;58.86
59545;BME280;45368;55.002;-1.592;2023-02-11T10:21:56;102510.14;;;9.38;59.70
59545;BME280;45368;55.002;-1.592;2023-02-11T10:24:26;102518.33;;;9.65;59.73
59545;BME280;45368;55.002;-1.592;2023-02-11T10:26:54;102522.44;;;9.64;59.74
59545;BME280;45368;55.002;-1.592;2023-02-11T10:29:32;102526.83;;;9.95;58.52
59545;BME280;45368;55.002;-1.592;2023-02-11T10:32:02;102533.68;;;9.54;59.78
59545;BME280;45368;55.002;-1.592;2023-02-11T10:34:31;102533.08;;;9.81;59.40
59545;BME280;45368;55.002;-1.592;2023-02-11T10:36:58;102524.34;;;9.89;58.82
59545;BME280;45368;55.002;-1.592;2023-02-11T10:39:26;102530.13;;;9.12;59.93
59545;BME280;45368;55.002;-1.592;2023-02-11T10:41:58;102524.55;;;9.45;59.87
59545;BME280;45368;55.002;-1.592;2023-02-11T10:44:31;102528.45;;;9.78;58.34
59545;BME280;45368;55.002;-1.592;2023-02-11T10:47:02;102537.20;;;10.04;57.50
59545;BME280;45368;55.002;-1.592;2023-02-11T10:49:37;102540.99;;;10.46;56.23
59545;BME280;45368;55.002;-1.592;2023-02-11T10:52:22;102540.89;;;11.62;53.47
59545;BME280;45368;55.002;-1.592;2023-02-11T10:54:59;102545.11;;;11.44;53.65
59545;BME280;45368;55.002;-1.592;2023-02-11T10:57:30;102540.61;;;12.29;50.92
59545;BME280;45368;55.002;-1.592;2023-02-11T11:00:04;102541.04;;;12.16;51.42
59545;BME280;45368;55.002;-1.592;2023-02-11T11:02:34;102547.03;;;11.27;52.99
59545;BME280;45368;55.002;-1.592;2023-02-11T11:05:04;102552.89;;;10.66;54.45
59545;BME280;45368;55.002;-1.592;2023-02-11T11:07:33;102553.38;;;11.18;54.47
59545;BME280;45368;55.002;-1.592;2023-02-11T11:10:03;102545.02;;;11.59;53.62
59545;BME280;45368;55.002;-1.592;2023-02-11T11:12:35;102540.90;;;12.24;51.09
59545;BME280;45368;55.002;-1.592;2023-02-11T11:15:17;102540.65;;;11.45;53.10
59545;BME280;45368;55.002;-1.592;2023-02-11T11:17:46;102538.43;;;11.43;53.26
59545;BME280;45368;55.002;-1.592;2023-02-11T11:20:18;102537.95;;;12.45;51.03
59545;BME280;45368;55.002;-1.592;2023-02-11T11:22:47;102530.12;;;10.94;53.89
59545;BME280;45368;55.002;-1.592;2023-02-11T11:25:25;102542.65;;;10.31;54.90
59545;BME280;45368;55.002;-1.592;2023-02-11T11:27:55;102545.74;;;10.65;55.32
59545;BME280;45368;55.002;-1.592;2023-02-11T11:30:27;102551.38;;;9.46;58.83
59545;BME280;45368;55.002;-1.592;2023-02-11T11:32:58;102550.05;;;10.05;57.11
59545;BME280;45368;55.002;-1.592;2023-02-11T11:35:27;102555.09;;;10.19;56.86
59545;BME280;45368;55.002;-1.592;2023-02-11T11:37:57;102556.80;;;9.66;58.25
59545;BME280;45368;55.002;-1.592;2023-02-11T11:40:28;102548.02;;;9.46;58.12
59545;BME280;45368;55.002;-1.592;2023-02-11T11:43:06;102538.60;;;10.81;56.20
59545;BME280;45368;55.002;-1.592;2023-02-11T11:45:52;102540.94;;;10.33;56.45
59545;BME280;45368;55.002;-1.592;2023-02-11T11:48:24;102534.76;;;10.17;56.25
59545;BME280;45368;55.002;-1.592;2023-02-11T11:50:55;102536.11;;;10.43;56.28
59545;BME280;45368;55.002;-1.592;2023-02-11T11:53:30;102539.60;;;10.42;56.24
59545;BME280;45368;55.002;-1.592;2023-02-11T11:56:03;102544.22;;;10.46;56.02
59545;BME280;45368;55.002;-1.592;2023-02-11T11:58:32;102550.71;;;9.41;59.14
59545;BME280;45368;55.002;-1.592;2023-02-11T12:01:09;102555.11;;;9.27;59.89
59545;BME280;45368;55.002;-1.592;2023-02-11T12:04:57;102557.33;;;8.75;60.08
59545;BME280;45368;55.002;-1.592;2023-02-11T12:07:37;102557.76;;;8.88;59.88
59545;BME280;45368;55.002;-1.592;2023-02-11T12:11:20;102554.42;;;8.97;60.35
59545;BME280;45368;55.002;-1.592;2023-02-11T12:14:03;102558.96;;;9.02;60.02
59545;BME280;45368;55.002;-1.592;2023-02-11T12:16:37;102560.47;;;9.36;59.29
59545;BME280;45368;55.002;-1.592;2023-02-11T12:19:25;102567.03;;;8.84;60.80
59545;BME280;45368;55.002;-1.592;2023-02-11T12:22:05;102560.23;;;9.01;60.76
59545;BME280;45368;55.002;-1.592;2023-02-11T12:24:47;102554.72;;;8.92;60.06
59545;BME280;45368;55.002;-1.592;2023-02-11T12:27:25;102560.26;;;8.34;61.03
59545;BME280;45368;55.002;-1.592;2023-02-11T12:30:03;102550.09;;;9.25;58.55
59545;BME280;45368;55.002;-1.592;2023-02-11T12:32:45;102549.69;;;9.31;58.53
59545;BME280;45368;55.002;-1.592;2023-02-11T12:35:30;102549.09;;;9.56;56.83
59545;BME280;45368;55.002;-1.592;2023-02-11T12:38:16;102541.77;;;10.37;55.00
59545;BME280;45368;55.002;-1.592;2023-02-11T12:40:56;102544.46;;;9.83;56.46
59545;BME280;45368;55.002;-1.592;2023-02-11T12:43:31;102551.14;;;9.23;57.36
59545;BME280;45368;55.002;-1.592;2023-02-11T12:46:21;102544.05;;;9.79;56.60
59545;BME280;45368;55.002;-1.592;2023-02-11T12:49:15;102553.36;;;9.32;57.51
59545;BME280;45368;55.002;-1.592;2023-02-11T12:51:57;102549.31;;;10.29;55.70
59545;BME280;45368;55.002;-1.592;2023-02-11T12:54:28;102544.15;;;10.26;55.37
59545;BME280;45368;55.002;-1.592;2023-02-11T12:57:01;102544.54;;;9.87;56.30
59545;BME280;45368;55.002;-1.592;2023-02-11T12:59:37;102548.63;;;9.06;58.10
59545;BME280;45368;55.002;-1.592;2023-02-11T13:02:15;102543.00;;;9.37;56.86
59545;BME280;45368;55.002;-1.592;2023-02-11T13:04:49;102545.29;;;8.61;58.46
59545;BME280;45368;55.002;-1.592;2023-02-11T13:07:23;102549.53;;;8.25;59.47
59545;BME280;45368;55.002;-1.592;2023-02-11T13:09:58;102556.06;;;9.00;57.74
59545;BME280;45368;55.002;-1.592;2023-02-11T13:12:29;102553.19;;;8.77;57.94